Aldebaran — 9HA2000 — position and weather

sailwx.info

Track history (hours):
 
Tides and Currents Weather Stations Pressure Air Temp Water Temp Dewpoint Dewpoint Depression Visibility Wind Speed Wind Dir Waves Ship Positions

Aldebaran

Last reported at 2018-Aug-01 11:55 UTC. Time now 2018-Aug-19 22:50 UTC.
Position N 37°26' E 010°51'.
Warning: this ship's position is 18 days out of date.

Length 207 m; draft 7.9 m.

Type: Ship (hazmat cat C). MMSI: 249771000.

Date/timePositionNaut miles runAvg speedWind from/ knotsBaromVisibWave heightAir tempDewpointWater temp
2018-Aug-01 11:55N 37°26' E 010°51'11914.3
2018-Aug-01 03:35N 37°50' E 008°24'114.4
2018-Aug-01 03:30N 37°50' E 008°23'14813.8
2018-Jul-31 16:49N 38°24' E 005°20'2613.8
2018-Jul-31 14:57N 38°29' E 004°48'1613.8
2018-Jul-31 13:46N 38°33' E 004°27'413.8
2018-Jul-31 13:30N 38°34' E 004°23'714.0
2018-Jul-31 13:00N 38°35' E 004°14'714.1
2018-Jul-31 12:29N 38°37' E 004°05'714.1
2018-Jul-31 12:00N 38°39' E 003°57'814.2
2018-Jul-31 11:28N 38°40' E 003°47'1515.2
2018-Jul-31 10:27N 38°44' E 003°28'715.1
2018-Jul-31 10:00N 38°45' E 003°20'815.1
2018-Jul-31 09:30N 38°47' E 003°10'714.8
2018-Jul-31 09:00N 38°49' E 003°01'914.8
2018-Jul-31 08:25N 38°51' E 002°50'614.9
2018-Jul-31 08:00N 38°52' E 002°43'815.0
2018-Jul-31 07:30N 38°56' E 002°34'714.9
2018-Jul-31 07:00N 38°59' E 002°25'12015.0
2018-Jul-30 22:59N 39°24' W 000°06'715.1
2018-Jul-30 22:31N 39°25' W 000°15'3 0.8
2018-Jul-30 19:02N 39°26' W 000°19'0 0.0
2018-Jul-30 18:56N 39°26' W 000°19'0 0.0
2018-Jul-30 01:18N 39°26' W 000°19'0 0.0
2018-Jul-30 01:00N 39°26' W 000°19'0 0.0
2018-Jul-30 00:30N 39°26' W 000°19'0 0.0
2018-Jul-29 20:28N 39°26' W 000°19'0 0.0
2018-Jul-29 17:40N 39°26' W 000°19'0 0.0
2018-Jul-29 17:30N 39°26' W 000°19'2 3.1
2018-Jul-29 17:00N 39°25' W 000°17'5 8.1
2018-Jul-29 16:27N 39°23' W 000°12'4615.2
2018-Jul-29 13:27N 38°50' E 000°29'15216.3
2018-Jul-29 04:10N 36°51' W 001°30'417.2
2018-Jul-29 03:58N 36°48' W 001°33'  
2018-Jul-26 23:48N 35°43' W 006°14'10415.2
2018-Jul-26 17:00N 34°24' W 007°36'33915.4 350 / 191013.5 5.4 22.017.5
2018-Jul-25 19:00N 30°00' W 011°48'9617.7 020 / 271014.5 5.4 22.019.0
2018-Jul-25 13:34N 28°43' W 012°54'116.9
2018-Jul-25 13:30N 28°42' W 012°55'917.4
2018-Jul-25 13:00N 28°35' W 013°00'1517.4
2018-Jul-25 12:07N 28°22' W 013°10'417.4
2018-Jul-25 11:51N 28°18' W 013°13'617.1
2018-Jul-25 11:30N 28°13' W 013°17'1016.7
2018-Jul-25 10:55N 28°05' W 013°23'716.5
2018-Jul-25 10:30N 27°60' W 013°28'816.3
2018-Jul-25 09:59N 27°54' W 013°34'1713.7
2018-Jul-25 08:44N 27°40' W 013°46'413.4
2018-Jul-25 08:28N 27°37' W 013°49'613.3
2018-Jul-25 08:00N 27°32' W 013°53'20916.6
2018-Jul-24 19:26N 24°47' W 016°15'1717.1
2018-Jul-24 18:25N 24°32' W 016°24'3617.3
2018-Jul-24 16:21N 23°60' W 016°41'617.3
2018-Jul-24 16:00N 23°54' W 016°43'1217.2
2018-Jul-24 15:18N 23°43' W 016°49'13618.7
2018-Jul-24 08:00N 21°36' W 017°42'   020 / 221013.5 2.2 19.518.0
Track history (hours):
 
Tides and Currents Weather Stations Pressure Air Temp Water Temp Dewpoint Dewpoint Depression Visibility Wind Speed Wind Dir Waves Ship Positions

Aldebaran

Last reported at 2018-Aug-01 11:55 UTC. Time now 2018-Aug-19 22:50 UTC.
Position N 37°26' E 010°51'.
Warning: this ship's position is 18 days out of date.

Length 207 m; draft 7.9 m.

Type: Ship (hazmat cat C). MMSI: 249771000.

Date/timePositionNaut miles runAvg speedWind from/ knotsBaromVisibWave heightAir tempDewpointWater temp
2018-Aug-01 11:55N 37°26' E 010°51'11914.3
2018-Aug-01 03:35N 37°50' E 008°24'114.4
2018-Aug-01 03:30N 37°50' E 008°23'14813.8
2018-Jul-31 16:49N 38°24' E 005°20'2613.8
2018-Jul-31 14:57N 38°29' E 004°48'1613.8
2018-Jul-31 13:46N 38°33' E 004°27'413.8
2018-Jul-31 13:30N 38°34' E 004°23'714.0
2018-Jul-31 13:00N 38°35' E 004°14'714.1
2018-Jul-31 12:29N 38°37' E 004°05'714.1
2018-Jul-31 12:00N 38°39' E 003°57'814.2
2018-Jul-31 11:28N 38°40' E 003°47'1515.2
2018-Jul-31 10:27N 38°44' E 003°28'715.1
2018-Jul-31 10:00N 38°45' E 003°20'815.1
2018-Jul-31 09:30N 38°47' E 003°10'714.8
2018-Jul-31 09:00N 38°49' E 003°01'914.8
2018-Jul-31 08:25N 38°51' E 002°50'614.9
2018-Jul-31 08:00N 38°52' E 002°43'815.0
2018-Jul-31 07:30N 38°56' E 002°34'714.9
2018-Jul-31 07:00N 38°59' E 002°25'12015.0
2018-Jul-30 22:59N 39°24' W 000°06'715.1
2018-Jul-30 22:31N 39°25' W 000°15'3 0.8
2018-Jul-30 19:02N 39°26' W 000°19'0 0.0
2018-Jul-30 18:56N 39°26' W 000°19'0 0.0
2018-Jul-30 01:18N 39°26' W 000°19'0 0.0
2018-Jul-30 01:00N 39°26' W 000°19'0 0.0
2018-Jul-30 00:30N 39°26' W 000°19'0 0.0
2018-Jul-29 20:28N 39°26' W 000°19'0 0.0
2018-Jul-29 17:40N 39°26' W 000°19'0 0.0
2018-Jul-29 17:30N 39°26' W 000°19'2 3.1
2018-Jul-29 17:00N 39°25' W 000°17'5 8.1
2018-Jul-29 16:27N 39°23' W 000°12'4615.2
2018-Jul-29 13:27N 38°50' E 000°29'15216.3
2018-Jul-29 04:10N 36°51' W 001°30'417.2
2018-Jul-29 03:58N 36°48' W 001°33'  
2018-Jul-26 23:48N 35°43' W 006°14'10415.2
2018-Jul-26 17:00N 34°24' W 007°36'33915.4 350 / 191013.5 5.4 22.017.5
2018-Jul-25 19:00N 30°00' W 011°48'9617.7 020 / 271014.5 5.4 22.019.0
2018-Jul-25 13:34N 28°43' W 012°54'116.9
2018-Jul-25 13:30N 28°42' W 012°55'917.4
2018-Jul-25 13:00N 28°35' W 013°00'1517.4
2018-Jul-25 12:07N 28°22' W 013°10'417.4
2018-Jul-25 11:51N 28°18' W 013°13'617.1
2018-Jul-25 11:30N 28°13' W 013°17'1016.7
2018-Jul-25 10:55N 28°05' W 013°23'716.5
2018-Jul-25 10:30N 27°60' W 013°28'816.3
2018-Jul-25 09:59N 27°54' W 013°34'1713.7
2018-Jul-25 08:44N 27°40' W 013°46'413.4
2018-Jul-25 08:28N 27°37' W 013°49'613.3
2018-Jul-25 08:00N 27°32' W 013°53'20916.6
2018-Jul-24 19:26N 24°47' W 016°15'1717.1
2018-Jul-24 18:25N 24°32' W 016°24'3617.3
2018-Jul-24 16:21N 23°60' W 016°41'617.3
2018-Jul-24 16:00N 23°54' W 016°43'1217.2
2018-Jul-24 15:18N 23°43' W 016°49'13618.7
2018-Jul-24 08:00N 21°36' W 017°42'   020 / 221013.5 2.2 19.518.0

Dump ship's entire track history